Lake Wenatchee to Mission Ridge
Blewett Pass
Latest observation 08/31 18:00 PDT
| Time (PDT) | Temp °F 4100' | RH % 4100' | Pcp1 in 4100' | PcpSum in 4100' | 24Sno in 4100' | SnoHt in 4100' | Pres millibar 4100' | EqTemp °F 4100' |
|---|---|---|---|---|---|---|---|---|
| 08/31 18:00 | 68 | 31 | 0.00 | 0.00 | 19.3 | -2.5 | 1014 | 72 |
| 08/31 17:00 | 69 | 29 | 0.00 | 0.00 | 33.6 | -2.2 | 1014 | 83 |
| 08/31 16:00 | 70 | 31 | 0.00 | 0.00 | 42.2 | -2.9 | 1014 | 87 |
| 08/31 15:00 | 71 | 32 | 0.00 | 0.00 | 43.5 | -3.3 | 1015 | 88 |
| 08/31 14:00 | 68 | 37 | 0.00 | 0.00 | 40.4 | -2.7 | 1015 | 85 |
| 08/31 13:00 | 67 | 40 | 0.00 | 0.00 | 37.6 | -2.4 | 1016 | 85 |
| 08/31 12:00 | 64 | 44 | 0.00 | 0.00 | 40.6 | -2.2 | 1016 | 84 |
| 08/31 11:00 | 63 | 44 | 0.00 | 0.00 | 33.3 | 141.5 | 1017 | 86 |
| 08/31 10:00 | 61 | 47 | 0.00 | 0.00 | 12.5 | 141.5 | 1017 | 86 |
| 08/31 09:00 | 59 | 52 | 0.00 | 0.00 | -20.8 | 141.5 | 1017 | 82 |
| 08/31 08:00 | 56 | 61 | 0.00 | 0.00 | -9.9 | 141.5 | 1017 | 69 |
| 08/31 07:00 | 46 | 83 | 0.00 | 0.00 | -13.8 | 141.5 | 1017 | 44 |
| 08/31 06:00 | 46 | 84 | 0.00 | 0.00 | -13.5 | 141.5 | 1016 | 43 |
| 08/31 05:00 | 46 | 82 | 0.00 | 0.00 | -18.5 | 141.5 | 1016 | 43 |
| 08/31 04:00 | 47 | 81 | 0.00 | 0.00 | -15.9 | 141.5 | 1017 | 44 |
| 08/31 03:00 | 47 | 80 | 0.00 | 0.00 | -20.5 | 141.5 | 1016 | 44 |
| 08/31 02:00 | 47 | 80 | 0.00 | 0.00 | -25.9 | 141.5 | 1017 | 45 |
| 08/31 01:00 | 48 | 77 | 0.00 | 0.00 | -19.2 | 141.5 | 1017 | 45 |
| 08/31 00:00 | 48 | 77 | 0.00 | 0.00 | -42.0 | 141.5 | 1017 | 45 |
| 08/30 23:00 | 49 | 73 | 0.00 | 0.00 | -99.8 | -1.7 | 1018 | 47 |
| 08/30 22:00 | 51 | 68 | 0.00 | 0.00 | -92.2 | -2.2 | 1018 | 48 |
| 08/30 21:00 | 53 | 63 | 0.00 | 0.00 | -72.5 | -1.5 | 1018 | 51 |
| 08/30 20:00 | 57 | 55 | 0.00 | 0.00 | -58.8 | -2.0 | 1017 | 56 |
| 08/30 19:00 | 60 | 50 | 0.00 | 0.00 | -30.3 | -2.0 | 1018 | 61 |
| 08/30 18:00 | 63 | 44 | 0.00 | 0.00 | 2.2 | -2.2 | 1018 | 68 |
| 08/30 17:00 | 66 | 37 | 0.00 | 0.00 | 25.6 | -2.2 | 1017 | 82 |
| 08/30 16:00 | 68 | 35 | 0.00 | 0.00 | 44.9 | 141.5 | 1018 | 87 |
| 08/30 15:00 | 68 | 34 | 0.00 | 0.00 | 34.7 | -2.9 | 1018 | 88 |
| 08/30 14:00 | 65 | 36 | 0.00 | 0.00 | 29.7 | -3.2 | 1018 | 86 |
| 08/30 13:00 | 63 | 35 | 0.00 | 0.00 | 18.0 | -2.7 | 1018 | 86 |
| 08/30 12:00 | 58 | 44 | 0.00 | 0.00 | -5.3 | -2.8 | 1018 | 83 |
| 08/30 11:00 | 58 | 47 | 0.00 | 0.00 | -46.5 | -2.8 | 1018 | 84 |
| 08/30 10:00 | 53 | 55 | 0.00 | 0.00 | -80.7 | -2.3 | 1018 | 80 |
| 08/30 09:00 | 50 | 64 | 0.00 | 0.00 | -82.3 | -2.3 | 1018 | 75 |
| 08/30 08:00 | 48 | 68 | 0.00 | 0.00 | -45.7 | -2.3 | 1018 | 61 |
| 08/30 07:00 | 39 | 90 | 0.00 | 0.00 | -9.6 | 141.5 | 1018 | 36 |
| 08/30 06:00 | 38 | 89 | 0.00 | 0.00 | -15.5 | 141.5 | 1018 | 36 |
| 08/30 05:00 | 39 | 90 | 0.00 | 0.00 | -37.8 | 141.5 | 1018 | 36 |
| 08/30 04:00 | 39 | 88 | 0.00 | 0.00 | -33.9 | 141.5 | 1018 | 37 |
| 08/30 03:00 | 40 | 83 | 0.00 | 0.00 | -90.9 | 37.9 | 1017 | 37 |
| 08/30 02:00 | 41 | 82 | 0.00 | 0.00 | -108.7 | -1.6 | 1018 | 38 |
| 08/30 01:00 | 42 | 80 | 0.00 | 0.00 | -107.3 | -1.7 | 1018 | 39 |
| 08/30 00:00 | 43 | 72 | 0.00 | 0.00 | -102.7 | -5.5 | 1018 | 41 |
| 08/29 23:00 | 45 | 68 | 0.00 | 0.00 | -107.0 | -5.5 | 1017 | 42 |
| 08/29 22:00 | 43 | 65 | 0.00 | 0.00 | -103.5 | -2.2 | 1018 | 40 |
| 08/29 21:00 | 44 | 62 | 0.00 | 0.00 | -98.7 | -1.3 | 1018 | 41 |
| 08/29 20:00 | 48 | 54 | 0.00 | 0.00 | -100.3 | -1.1 | 1017 | 47 |
| 08/29 19:00 | 51 | 49 | 0.00 | 0.00 | -89.8 | -1.5 | 1017 | 51 |
| 08/29 18:00 | 53 | 50 | 0.00 | 0.00 | -69.0 | -1.2 | 1017 | 57 |
| 08/29 17:00 | 55 | 47 | 0.00 | 0.00 | -38.5 | -0.9 | 1016 | 72 |
| 08/29 16:00 | 58 | 42 | 0.00 | 0.00 | -35.5 | 62.3 | 1016 | 75 |
| 08/29 15:00 | 56 | 46 | 0.00 | 0.00 | -34.3 | -1.5 | 1016 | 70 |
| 08/29 14:00 | 57 | 44 | 0.00 | 0.00 | -36.3 | -1.2 | 1016 | 76 |
| 08/29 13:00 | 54 | 48 | 0.00 | 0.00 | -42.8 | -1.0 | 1015 | 65 |
| 08/29 12:00 | 54 | 52 | 0.00 | 0.00 | -38.5 | -1.5 | 1015 | 73 |
| 08/29 11:00 | 54 | 54 | 0.00 | 0.00 | -37.5 | -1.7 | 1014 | 76 |
| 08/29 10:00 | 54 | 51 | 0.00 | 0.00 | -70.0 | -2.0 | 1014 | 78 |
| 08/29 09:00 | 52 | 56 | 0.00 | 0.00 | -102.6 | -2.9 | 1014 | 73 |
| 08/29 08:00 | 50 | 63 | 0.00 | 0.00 | -105.7 | -3.2 | 1014 | 61 |
| 08/29 07:00 | 45 | 75 | 0.00 | 0.00 | -106.3 | -2.1 | 1013 | 43 |
| 08/29 06:00 | 47 | 72 | 0.00 | 0.00 | -105.9 | -1.8 | 1013 | 45 |
| 08/29 05:00 | 48 | 71 | 0.00 | 0.00 | -106.3 | -2.6 | 1013 | 47 |
| 08/29 04:00 | 49 | 74 | 0.00 | 0.00 | -106.6 | -2.2 | 1014 | 47 |
| 08/29 03:00 | 49 | 70 | 0.00 | 0.00 | -105.5 | -2.0 | 1014 | 46 |
| 08/29 02:00 | 48 | 68 | 0.00 | 0.00 | -103.5 | -3.2 | 1014 | 44 |
| 08/29 01:00 | 47 | 69 | 0.00 | 0.00 | -97.3 | -1.7 | 1014 | 44 |
| 08/29 00:00 | 50 | 65 | 0.00 | 0.00 | -76.8 | -2.2 | 1014 | 46 |
| 08/28 23:00 | 50 | 65 | 0.00 | 0.00 | -85.4 | -5.4 | 1015 | 47 |
| 08/28 22:00 | 52 | 61 | 0.00 | 0.00 | -74.1 | -1.7 | 1015 | 49 |
| 08/28 21:00 | 54 | 54 | 0.00 | 0.00 | -50.5 | -2.0 | 1015 | 51 |
| 08/28 20:00 | 58 | 49 | 0.00 | 0.00 | -10.9 | 141.5 | 1015 | 56 |
| 08/28 19:00 | 62 | 39 | 0.00 | 0.00 | 8.2 | 141.5 | 1015 | 63 |
| 08/28 18:00 | 66 | 34 | 0.00 | 0.00 | 28.7 | 0.8 | 1015 | 72 |
| 08/28 17:00 | 70 | 27 | 0.00 | 0.00 | 43.5 | 125.8 | 1015 | 89 |
| 08/28 16:00 | 71 | 24 | 0.00 | 0.00 | 45.7 | -2.3 | 1015 | 91 |
| 08/28 15:00 | 72 | 21 | 0.00 | 0.00 | 51.0 | 125.8 | 1016 | 92 |
| 08/28 14:00 | 71 | 19 | 0.00 | 0.00 | 51.9 | 125.8 | 1016 | 90 |
| 08/28 13:00 | 68 | 29 | 0.00 | 0.00 | 41.2 | -1.3 | 1017 | 88 |
| 08/28 12:00 | 67 | 33 | 0.00 | 0.00 | 27.1 | -1.9 | 1017 | 90 |
| 08/28 11:00 | 64 | 38 | 0.00 | 0.00 | 3.4 | -2.1 | 1017 | 84 |
| 08/28 10:00 | 60 | 47 | 0.00 | 0.00 | -54.2 | -2.2 | 1017 | 85 |
| 08/28 09:00 | 58 | 49 | 0.00 | 0.00 | -94.7 | -2.3 | 1017 | 80 |
| 08/28 08:00 | 52 | 68 | 0.00 | 0.00 | -105.3 | -1.4 | 1017 | 61 |
| 08/28 07:00 | 46 | 75 | 0.00 | 0.00 | -107.6 | -1.4 | 1017 | 45 |
| 08/28 06:00 | 47 | 71 | 0.00 | 0.00 | -106.5 | -1.6 | 1017 | 45 |
| 08/28 05:00 | 48 | 70 | 0.00 | 0.00 | -107.8 | -1.4 | 1017 | 45 |
| 08/28 04:00 | 47 | 79 | 0.00 | 0.00 | -108.4 | -1.4 | 1017 | 44 |
| 08/28 03:00 | 46 | 77 | 0.00 | 0.00 | -108.0 | -1.3 | 1017 | 44 |
| 08/28 02:00 | 48 | 74 | 0.00 | 0.00 | -107.6 | -1.3 | 1018 | 45 |
| 08/28 01:00 | 49 | 69 | 0.00 | 0.00 | -106.1 | 0.7 | 1018 | 47 |
| 08/28 00:00 | 51 | 65 | 0.00 | 0.00 | -105.3 | 1.0 | 1018 | 49 |
| 08/27 23:00 | 52 | 63 | 0.00 | 0.00 | -104.5 | 0.9 | 1018 | 50 |
| 08/27 22:00 | 53 | 59 | 0.00 | 0.00 | -98.8 | 0.7 | 1018 | 50 |
| 08/27 21:00 | 54 | 57 | 0.00 | 0.00 | -86.5 | 1.3 | 1018 | 52 |
| 08/27 20:00 | 57 | 52 | 0.00 | 0.00 | -64.9 | 0.6 | 1018 | 55 |
| 08/27 19:00 | 59 | 46 | 0.00 | 0.00 | -33.5 | 0.5 | 1018 | 60 |
| 08/27 18:00 | 62 | 41 | 0.00 | 0.00 | 6.9 | 0.1 | 1018 | 68 |
| 08/27 17:00 | 65 | 36 | 0.00 | 0.00 | 37.2 | 126.0 | 1018 | 82 |
| 08/27 16:00 | 67 | 35 | 0.00 | 0.00 | 48.8 | 126.0 | 1018 | 85 |
| 08/27 15:00 | 69 | 28 | 0.00 | 0.00 | 51.5 | 125.8 | 1017 | 88 |
| 08/27 14:00 | 70 | 30 | 0.00 | 0.00 | 47.6 | 125.8 | 1017 | 89 |
| 08/27 13:00 | 67 | 31 | 0.00 | 0.00 | 38.7 | 125.9 | 1017 | 86 |
| 08/27 12:00 | 65 | 48 | 0.00 | 0.00 | 20.5 | 62.8 | 1017 | 84 |
| 08/27 11:00 | 64 | 44 | 0.00 | 0.00 | -0.9 | 0.4 | 1017 | 85 |
| 08/27 10:00 | 64 | 48 | 0.00 | 0.00 | -31.8 | 0.2 | 1017 | 84 |
| 08/27 09:00 | 61 | 57 | 0.00 | 0.00 | -88.2 | 0.0 | 1017 | 81 |
| 08/27 08:00 | 55 | 67 | 0.00 | 0.00 | -86.2 | 0.9 | 1017 | 56 |
| 08/27 07:00 | 55 | 66 | 0.00 | 0.00 | -72.5 | 0.9 | 1017 | 53 |
| 08/27 06:00 | 54 | 68 | 0.00 | 0.00 | -70.9 | 1.0 | 1017 | 52 |
| 08/27 05:00 | 53 | 68 | 0.00 | 0.00 | -37.4 | 122.3 | 1017 | 51 |
| 08/27 04:00 | 54 | 65 | 0.00 | 0.00 | -36.7 | 126.0 | 1017 | 51 |
| 08/27 03:00 | 54 | 65 | 0.00 | 0.00 | -53.2 | 125.3 | 1017 | 51 |
| 08/27 02:00 | 55 | 60 | 0.00 | 0.00 | -93.0 | 1.2 | 1017 | 53 |
| 08/27 01:00 | 56 | 56 | 0.00 | 0.00 | -89.0 | 1.9 | 1017 | 54 |
| 08/27 00:00 | 59 | 49 | 0.00 | 0.00 | -74.1 | 1.2 | 1017 | 56 |
| 08/26 23:00 | 60 | 45 | 0.00 | 0.00 | -53.5 | 1.3 | 1017 | 57 |
| 08/26 22:00 | 61 | 43 | 0.00 | 0.00 | -32.0 | 0.4 | 1017 | 58 |
| 08/26 21:00 | 65 | 37 | 0.00 | 0.00 | 1.8 | 0.7 | 1018 | 63 |
| 08/26 20:00 | 69 | 32 | 0.00 | 0.00 | 29.6 | 0.4 | 1017 | 68 |
| 08/26 19:00 | 73 | 28 | 0.00 | 0.00 | 48.7 | 125.8 | 1017 | 75 |
| 08/26 18:00 | 77 | 24 | 0.00 | 0.00 | 54.0 | 125.6 | 1016 | 84 |
| 08/26 17:00 | 80 | 22 | 0.00 | 0.00 | 56.4 | 125.7 | 1016 | 95 |
| 08/26 16:00 | 79 | 22 | 0.00 | 0.00 | 54.9 | 125.7 | 1017 | 89 |
| 08/26 15:00 | 83 | 15 | 0.00 | 0.00 | 56.5 | 125.1 | 1017 | 102 |
| 08/26 14:00 | 82 | 17 | 0.00 | 0.00 | 57.5 | 125.5 | 1017 | 99 |
| 08/26 13:00 | 83 | 16 | 0.00 | 0.00 | 57.5 | 125.6 | 1017 | 103 |
| 08/26 12:00 | 82 | 16 | 0.00 | 0.00 | 58.3 | 125.7 | 1017 | 104 |
| 08/26 11:00 | 81 | 15 | 0.00 | 0.00 | 61.4 | 125.7 | 1018 | 107 |
| 08/26 10:00 | 77 | 22 | 0.00 | 0.00 | 57.5 | 125.7 | 1018 | 101 |
| 08/26 09:00 | 78 | 21 | 0.00 | 0.00 | 28.0 | 125.8 | 1018 | 98 |
| 08/26 08:00 | 73 | 25 | 0.00 | 0.00 | -32.2 | 125.8 | 1018 | 84 |
| 08/26 07:00 | 60 | 39 | 0.00 | 0.00 | -71.8 | 1.1 | 1018 | 58 |
| 08/26 06:00 | 61 | 33 | 0.00 | 0.00 | -47.1 | 1.4 | 1018 | 58 |
| 08/26 05:00 | 62 | 30 | 0.00 | 0.00 | -25.7 | 126.0 | 1018 | 59 |
| 08/26 04:00 | 61 | 31 | 0.00 | 0.00 | -57.7 | 126.0 | 1018 | 58 |
| 08/26 03:00 | 60 | 51 | 0.00 | 0.00 | -83.0 | 0.3 | 1019 | 57 |
| 08/26 02:00 | 60 | 52 | 0.00 | 0.00 | -72.6 | 0.1 | 1019 | 57 |
| 08/26 01:00 | 62 | 49 | 0.00 | 0.00 | -56.2 | 0.1 | 1019 | 59 |
| 08/26 00:00 | 62 | 46 | 0.00 | 0.00 | -49.1 | 0.0 | 1019 | 59 |
| 08/25 23:00 | 63 | 42 | 0.00 | 0.00 | -36.0 | 0.1 | 1019 | 60 |
| 08/25 22:00 | 66 | 39 | 0.00 | 0.00 | -11.4 | 0.2 | 1019 | 64 |
| 08/25 21:00 | 70 | 31 | 0.00 | 0.00 | 14.0 | 0.1 | 1020 | 66 |
| 08/25 20:00 | 72 | 28 | 0.00 | 0.00 | 41.4 | 63.4 | 1019 | 70 |
| 08/25 19:00 | 78 | 20 | 0.00 | 0.00 | 51.4 | 125.8 | 1019 | 79 |
| 08/25 18:00 | 79 | 19 | 0.00 | 0.00 | 53.8 | 125.8 | 1019 | 85 |
| 08/25 17:00 | 82 | 20 | 0.00 | 0.00 | 56.9 | 125.8 | 1019 | 96 |
| 08/25 16:00 | 81 | 21 | 0.00 | 0.00 | 56.7 | 125.8 | 1019 | 97 |
| 08/25 15:00 | 80 | 22 | 0.00 | 0.00 | 55.6 | 125.7 | 1020 | 95 |
| 08/25 14:00 | 79 | 24 | 0.00 | 0.00 | 55.7 | 125.8 | 1020 | 94 |
| 08/25 13:00 | 78 | 25 | 0.00 | 0.00 | 54.3 | 125.8 | 1020 | 93 |
| 08/25 12:00 | 76 | 26 | 0.00 | 0.00 | 57.8 | 125.8 | 1020 | 96 |
| 08/25 11:00 | 76 | 27 | 0.00 | 0.00 | 56.6 | 125.8 | 1020 | 95 |
| 08/25 10:00 | 73 | 29 | 0.00 | 0.00 | 49.4 | 125.8 | 1021 | 94 |
| 08/25 09:00 | 71 | 32 | 0.00 | 0.00 | 9.4 | 125.8 | 1021 | 92 |
| 08/25 08:00 | 66 | 39 | 0.00 | 0.00 | -35.0 | 126.0 | 1021 | 80 |
| 08/25 07:00 | 58 | 46 | 0.00 | 0.00 | -79.8 | 17.7 | 1020 | 55 |
| 08/25 06:00 | 58 | 44 | 0.00 | 0.00 | -80.1 | 1.0 | 1020 | 54 |
| 08/25 05:00 | 58 | 44 | 0.00 | 0.00 | -78.4 | 1.3 | 1020 | 54 |
| 08/25 04:00 | 58 | 45 | 0.00 | 0.00 | -89.6 | 0.9 | 1020 | 54 |
| 08/25 03:00 | 58 | 47 | 0.00 | 0.00 | -84.8 | 0.9 | 1020 | 54 |
| 08/25 02:00 | 58 | 45 | 0.00 | 0.00 | -85.8 | 1.1 | 1020 | 55 |
| 08/25 01:00 | 59 | 45 | 0.00 | 0.00 | -82.2 | 0.8 | 1020 | 55 |
| 08/25 00:00 | 59 | 45 | 0.00 | 0.00 | -67.0 | 0.7 | 1020 | 55 |
| 08/24 23:00 | 59 | 46 | 0.00 | 0.00 | -34.1 | 125.4 | 1020 | 56 |
| 08/24 22:00 | 60 | 46 | 0.00 | 0.00 | -42.7 | 0.5 | 1020 | 57 |
| 08/24 21:00 | 62 | 43 | 0.00 | 0.00 | -18.3 | 0.5 | 1020 | 60 |
| 08/24 20:00 | 67 | 36 | 0.00 | 0.00 | 15.2 | 0.4 | 1020 | 66 |
| 08/24 19:00 | 72 | 28 | 0.00 | 0.00 | 36.8 | 125.8 | 1020 | 74 |

